Terminal Aerodrome Forecast
Issued by NWS

Home | Current Version | Previous Version | Text Only | Print | Product List | Glossary On
Versions: 1 2 3 4 5 6 7 8 9 10 11 12 13 14 15 16 17 18 19 20 21
000
FTUS43 KDMX 182320
TAFFOD
TAF
KFOD 182320Z 1900/1924 16012KT P6SM SCT120
     FM191500 19014G18KT P6SM SCT100
     FM191800 20016G22KT P6SM BKN100=

USA.gov is the U.S. government's official web portal to all federal, state and local government web resources and services.